WZZ34PR LCLK-LBSF
Flight info
| Callsign | WZZ34PR |
|---|---|
| Flight time | 2h 4m |
| Altitude | 36000 |
| Route | PHA M31 GENOS DCT PEDER DCT EVENO UM601 EXELA UN127 LMO DCT EVIVI Y94 VANET |
| Aircraft | A321/M-SDE1E2E3GIJ1J4RWXY/LB1 |
Departure
| Time | 2026-05-03 20:39 |
|---|---|
| Airport | Larnaca International Airport (LCLK) |
Arrival
| Time | 2026-05-03 22:44 |
|---|---|
| Airport | Sofia Airport (LBSF) |
| Time | Latitude | Longitude | Altitude | Speed | Heading |
|---|---|---|---|---|---|
| 2026-05-03 20:15 | 34.86667 | 33.60804 | 21 ft | 0 kts | 225° |
| 2026-05-03 20:27 | 34.86670 | 33.60808 | 21 ft | 3 kts | 224° |
| 2026-05-03 20:27 | 34.86690 | 33.60828 | 23 ft | 4 kts | 209° |
| 2026-05-03 20:28 | 34.86715 | 33.60840 | 24 ft | 4 kts | 185° |
| 2026-05-03 20:28 | 34.86739 | 33.60837 | 24 ft | 4 kts | 146° |
| 2026-05-03 20:28 | 34.86746 | 33.60831 | 23 ft | 0 kts | 135° |
| 2026-05-03 20:32 | 34.86742 | 33.60836 | 24 ft | 1 kts | 135° |
| 2026-05-03 20:32 | 34.86729 | 33.60852 | 24 ft | 5 kts | 135° |
| 2026-05-03 20:32 | 34.86692 | 33.60896 | 21 ft | 10 kts | 135° |
| 2026-05-03 20:32 | 34.86646 | 33.60955 | 21 ft | 8 kts | 126° |
| 2026-05-03 20:33 | 34.86654 | 33.61020 | 22 ft | 9 kts | 74° |
| 2026-05-03 20:33 | 34.86634 | 33.61090 | 21 ft | 9 kts | 114° |
| 2026-05-03 20:33 | 34.86661 | 33.61161 | 21 ft | 11 kts | 46° |
| 2026-05-03 20:33 | 34.86728 | 33.61242 | 21 ft | 16 kts | 45° |
| 2026-05-03 20:34 | 34.86820 | 33.61354 | 22 ft | 21 kts | 44° |
| 2026-05-03 20:34 | 34.86929 | 33.61488 | 21 ft | 23 kts | 45° |
| 2026-05-03 20:34 | 34.87046 | 33.61631 | 21 ft | 24 kts | 46° |
| 2026-05-03 20:34 | 34.87168 | 33.61781 | 22 ft | 26 kts | 45° |
| 2026-05-03 20:35 | 34.87296 | 33.61938 | 22 ft | 27 kts | 45° |
| 2026-05-03 20:35 | 34.87430 | 33.62102 | 20 ft | 28 kts | 45° |
| 2026-05-03 20:35 | 34.87569 | 33.62272 | 22 ft | 29 kts | 45° |
| 2026-05-03 20:35 | 34.87714 | 33.62448 | 20 ft | 30 kts | 45° |
| 2026-05-03 20:36 | 34.87863 | 33.62629 | 20 ft | 30 kts | 45° |
| 2026-05-03 20:36 | 34.88005 | 33.62804 | 20 ft | 30 kts | 45° |
| 2026-05-03 20:36 | 34.88153 | 33.62984 | 20 ft | 31 kts | 45° |
| 2026-05-03 20:36 | 34.88288 | 33.63151 | 20 ft | 25 kts | 44° |
| 2026-05-03 20:37 | 34.88391 | 33.63276 | 20 ft | 16 kts | 46° |
| 2026-05-03 20:37 | 34.88436 | 33.63334 | 21 ft | 0 kts | 57° |
| 2026-05-03 20:37 | 34.88436 | 33.63337 | 20 ft | 1 kts | 68° |
| 2026-05-03 20:37 | 34.88438 | 33.63365 | 20 ft | 5 kts | 97° |
| 2026-05-03 20:38 | 34.88417 | 33.63411 | 21 ft | 7 kts | 129° |
| 2026-05-03 20:38 | 34.88377 | 33.63462 | 21 ft | 11 kts | 135° |
| 2026-05-03 20:38 | 34.88318 | 33.63520 | 20 ft | 8 kts | 163° |
| 2026-05-03 20:38 | 34.88272 | 33.63491 | 21 ft | 11 kts | 223° |
| 2026-05-03 20:39 | 34.88155 | 33.63348 | 20 ft | 53 kts | 225° |
| 2026-05-03 20:39 | 34.87712 | 33.62808 | 23 ft | 125 kts | 225° |
| 2026-05-03 20:39 | 34.86969 | 33.61902 | 220 ft | 161 kts | 225° |
| 2026-05-03 20:39 | 34.86204 | 33.60951 | 1150 ft | 155 kts | 227° |
| 2026-05-03 20:40 | 34.85446 | 33.59969 | 1715 ft | 168 kts | 228° |
| 2026-05-03 20:40 | 34.84604 | 33.58880 | 2077 ft | 187 kts | 229° |
| 2026-05-03 20:40 | 34.83647 | 33.57625 | 2393 ft | 215 kts | 228° |
| 2026-05-03 20:40 | 34.82595 | 33.56253 | 3135 ft | 224 kts | 229° |
| 2026-05-03 20:41 | 34.81523 | 33.54864 | 4060 ft | 226 kts | 228° |
| 2026-05-03 20:41 | 34.80439 | 33.53479 | 5035 ft | 227 kts | 228° |
| 2026-05-03 20:41 | 34.79338 | 33.52080 | 5950 ft | 230 kts | 228° |
| 2026-05-03 20:41 | 34.78224 | 33.50665 | 6845 ft | 233 kts | 228° |
| 2026-05-03 20:42 | 34.77100 | 33.49236 | 7719 ft | 236 kts | 228° |
| 2026-05-03 20:42 | 34.75952 | 33.47766 | 8493 ft | 243 kts | 228° |
| 2026-05-03 20:42 | 34.74779 | 33.46257 | 9331 ft | 248 kts | 229° |
| 2026-05-03 20:42 | 34.73585 | 33.44719 | 10157 ft | 253 kts | 229° |
| 2026-05-03 20:43 | 34.72326 | 33.43100 | 10483 ft | 276 kts | 229° |
| 2026-05-03 20:43 | 34.70960 | 33.41342 | 10884 ft | 292 kts | 229° |
| 2026-05-03 20:43 | 34.69591 | 33.39490 | 11614 ft | 296 kts | 235° |
| 2026-05-03 20:43 | 34.68591 | 33.37309 | 12432 ft | 297 kts | 248° |
| 2026-05-03 20:44 | 34.68091 | 33.34866 | 13269 ft | 301 kts | 262° |
| 2026-05-03 20:44 | 34.68099 | 33.32303 | 14061 ft | 305 kts | 269° |
| 2026-05-03 20:44 | 34.68211 | 33.29726 | 14835 ft | 306 kts | 269° |
| 2026-05-03 20:44 | 34.68320 | 33.27139 | 15626 ft | 307 kts | 268° |
| 2026-05-03 20:45 | 34.68425 | 33.24543 | 16427 ft | 308 kts | 268° |
| 2026-05-03 20:45 | 34.68527 | 33.21937 | 17227 ft | 309 kts | 267° |
| 2026-05-03 20:45 | 34.68629 | 33.19322 | 18032 ft | 311 kts | 267° |
| 2026-05-03 20:45 | 34.68733 | 33.16696 | 18731 ft | 312 kts | 267° |
| 2026-05-03 20:46 | 34.68840 | 33.14060 | 19416 ft | 313 kts | 267° |
| 2026-05-03 20:46 | 34.68945 | 33.11413 | 20104 ft | 314 kts | 266° |
| 2026-05-03 20:46 | 34.69050 | 33.08755 | 20797 ft | 316 kts | 266° |
| 2026-05-03 20:46 | 34.69153 | 33.06079 | 21492 ft | 317 kts | 266° |
| 2026-05-03 20:47 | 34.69256 | 33.03396 | 22176 ft | 319 kts | 266° |
| 2026-05-03 20:47 | 34.69359 | 33.00699 | 22849 ft | 321 kts | 266° |
| 2026-05-03 20:47 | 34.69462 | 32.97986 | 23497 ft | 322 kts | 265° |
| 2026-05-03 20:47 | 34.69566 | 32.95258 | 23992 ft | 325 kts | 265° |
| 2026-05-03 20:48 | 34.69636 | 32.93404 | 24315 ft | 326 kts | 265° |
| 2026-05-03 20:48 | 34.69739 | 32.90636 | 24775 ft | 330 kts | 265° |
| 2026-05-03 20:48 | 34.69842 | 32.87839 | 25223 ft | 333 kts | 266° |
| 2026-05-03 20:48 | 34.69948 | 32.85017 | 25678 ft | 336 kts | 266° |
| 2026-05-03 20:49 | 34.70056 | 32.82169 | 26123 ft | 339 kts | 266° |
| 2026-05-03 20:49 | 34.70164 | 32.79294 | 26570 ft | 342 kts | 266° |
| 2026-05-03 20:49 | 34.70269 | 32.76393 | 26998 ft | 346 kts | 266° |
| 2026-05-03 20:49 | 34.70374 | 32.73501 | 27414 ft | 349 kts | 266° |
| 2026-05-03 20:50 | 34.70480 | 32.70543 | 27818 ft | 352 kts | 266° |
| 2026-05-03 20:50 | 34.70587 | 32.67556 | 28236 ft | 355 kts | 266° |
| 2026-05-03 20:50 | 34.70693 | 32.64538 | 28638 ft | 359 kts | 266° |
| 2026-05-03 20:50 | 34.70800 | 32.61496 | 29056 ft | 362 kts | 266° |
| 2026-05-03 20:51 | 34.70907 | 32.58427 | 29456 ft | 365 kts | 266° |
| 2026-05-03 20:51 | 34.71012 | 32.55332 | 29834 ft | 368 kts | 267° |
| 2026-05-03 20:51 | 34.71119 | 32.52210 | 30166 ft | 371 kts | 267° |
| 2026-05-03 20:51 | 34.71103 | 32.49076 | 30469 ft | 371 kts | 262° |
| 2026-05-03 20:52 | 34.70939 | 32.45935 | 30775 ft | 374 kts | 262° |
| 2026-05-03 20:52 | 34.70771 | 32.42770 | 31086 ft | 377 kts | 263° |
| 2026-05-03 20:52 | 34.70602 | 32.39582 | 31420 ft | 379 kts | 263° |
| 2026-05-03 20:52 | 34.70434 | 32.36391 | 31849 ft | 378 kts | 263° |
| 2026-05-03 20:53 | 34.70266 | 32.33199 | 32254 ft | 379 kts | 263° |
| 2026-05-03 20:53 | 34.70096 | 32.29997 | 32641 ft | 379 kts | 263° |
| 2026-05-03 20:53 | 34.69925 | 32.26795 | 33013 ft | 380 kts | 263° |
| 2026-05-03 20:53 | 34.69752 | 32.23584 | 33383 ft | 381 kts | 263° |
| 2026-05-03 20:54 | 34.69579 | 32.20364 | 33739 ft | 383 kts | 263° |
| 2026-05-03 20:54 | 34.69220 | 32.13897 | 34354 ft | 385 kts | 263° |
| 2026-05-03 20:54 | 34.69041 | 32.10649 | 34644 ft | 386 kts | 264° |
| 2026-05-03 20:55 | 34.68861 | 32.07394 | 34938 ft | 387 kts | 264° |
| 2026-05-03 20:55 | 34.68681 | 32.04130 | 35231 ft | 388 kts | 264° |
| 2026-05-03 20:55 | 34.68497 | 32.00860 | 35520 ft | 389 kts | 264° |
| 2026-05-03 20:55 | 34.68311 | 31.97576 | 35791 ft | 390 kts | 264° |
| 2026-05-03 20:56 | 34.68379 | 31.91006 | 35889 ft | 392 kts | 277° |
| 2026-05-03 20:56 | 34.69169 | 31.87823 | 35889 ft | 397 kts | 288° |
| 2026-05-03 20:56 | 34.70472 | 31.84832 | 35889 ft | 403 kts | 294° |
| 2026-05-03 20:57 | 34.73341 | 31.78970 | 35887 ft | 404 kts | 294° |
| 2026-05-03 20:57 | 34.76198 | 31.73093 | 35883 ft | 404 kts | 294° |
| 2026-05-03 20:58 | 34.79061 | 31.67201 | 35884 ft | 405 kts | 294° |
| 2026-05-03 20:58 | 34.81926 | 31.61302 | 35888 ft | 405 kts | 294° |
| 2026-05-03 20:59 | 34.84789 | 31.55389 | 35891 ft | 406 kts | 294° |
| 2026-05-03 20:59 | 34.87649 | 31.49465 | 35889 ft | 406 kts | 295° |
| 2026-05-03 21:00 | 34.90032 | 31.44536 | 35890 ft | 406 kts | 295° |
| 2026-05-03 21:00 | 34.93380 | 31.37600 | 35884 ft | 406 kts | 295° |
| 2026-05-03 21:01 | 34.96180 | 31.31779 | 35883 ft | 406 kts | 295° |
| 2026-05-03 21:01 | 34.99030 | 31.25837 | 35881 ft | 406 kts | 295° |
| 2026-05-03 21:02 | 35.01876 | 31.19886 | 35873 ft | 406 kts | 295° |
| 2026-05-03 21:02 | 35.04722 | 31.13926 | 35873 ft | 407 kts | 295° |
| 2026-05-03 21:03 | 35.07577 | 31.07959 | 35868 ft | 407 kts | 295° |
| 2026-05-03 21:03 | 35.10438 | 31.01982 | 35870 ft | 408 kts | 295° |
| 2026-05-03 21:04 | 35.13300 | 30.95978 | 35857 ft | 409 kts | 295° |
| 2026-05-03 21:04 | 35.16156 | 30.89963 | 35849 ft | 410 kts | 295° |
| 2026-05-03 21:05 | 35.19486 | 30.84269 | 35845 ft | 419 kts | 307° |
| 2026-05-03 21:05 | 35.23480 | 30.79082 | 35844 ft | 419 kts | 307° |
| 2026-05-03 21:06 | 35.27470 | 30.73869 | 35840 ft | 420 kts | 307° |
| 2026-05-03 21:06 | 35.31461 | 30.68647 | 35835 ft | 420 kts | 307° |
| 2026-05-03 21:07 | 35.35452 | 30.63406 | 35831 ft | 421 kts | 307° |
| 2026-05-03 21:07 | 35.39454 | 30.58155 | 35825 ft | 422 kts | 308° |
| 2026-05-03 21:08 | 35.43463 | 30.52892 | 35825 ft | 423 kts | 308° |
| 2026-05-03 21:08 | 35.47475 | 30.47614 | 35818 ft | 423 kts | 308° |
| 2026-05-03 21:09 | 35.51484 | 30.42334 | 35818 ft | 423 kts | 308° |
| 2026-05-03 21:09 | 35.55490 | 30.37040 | 35814 ft | 423 kts | 308° |
| 2026-05-03 21:10 | 35.59498 | 30.31738 | 35813 ft | 424 kts | 308° |
| 2026-05-03 21:10 | 35.63499 | 30.26419 | 35807 ft | 424 kts | 308° |
| 2026-05-03 21:11 | 35.67511 | 30.21093 | 35805 ft | 424 kts | 308° |
| 2026-05-03 21:11 | 35.71495 | 30.15802 | 35800 ft | 424 kts | 308° |
| 2026-05-03 21:12 | 35.75502 | 30.10465 | 35796 ft | 425 kts | 308° |
| 2026-05-03 21:12 | 35.79537 | 30.05084 | 35790 ft | 425 kts | 308° |
| 2026-05-03 21:13 | 35.83175 | 29.99415 | 35786 ft | 419 kts | 295° |
| 2026-05-03 21:13 | 35.85294 | 29.92793 | 35782 ft | 415 kts | 286° |
| 2026-05-03 21:14 | 35.87115 | 29.86087 | 35776 ft | 416 kts | 286° |
| 2026-05-03 21:14 | 35.88951 | 29.79328 | 35781 ft | 416 kts | 286° |
| 2026-05-03 21:15 | 35.90781 | 29.72560 | 35780 ft | 416 kts | 286° |
| 2026-05-03 21:15 | 35.92603 | 29.65782 | 35784 ft | 417 kts | 286° |
| 2026-05-03 21:16 | 35.94458 | 29.59007 | 35784 ft | 418 kts | 290° |
| 2026-05-03 21:16 | 35.97591 | 29.52935 | 35789 ft | 426 kts | 310° |
| 2026-05-03 21:17 | 36.01338 | 29.48940 | 35788 ft | 430 kts | 317° |
| 2026-05-03 21:17 | 36.06757 | 29.43455 | 35790 ft | 431 kts | 317° |
| 2026-05-03 21:18 | 36.11386 | 29.38744 | 35790 ft | 431 kts | 317° |
| 2026-05-03 21:18 | 36.16020 | 29.34029 | 35794 ft | 432 kts | 317° |
| 2026-05-03 21:19 | 36.20652 | 29.29295 | 35794 ft | 432 kts | 316° |
| 2026-05-03 21:19 | 36.25238 | 29.24498 | 35795 ft | 432 kts | 316° |
| 2026-05-03 21:20 | 36.29808 | 29.19664 | 35795 ft | 432 kts | 316° |
| 2026-05-03 21:20 | 36.34380 | 29.14835 | 35796 ft | 432 kts | 316° |
| 2026-05-03 21:21 | 36.38957 | 29.10006 | 35799 ft | 432 kts | 316° |
| 2026-05-03 21:21 | 36.43540 | 29.05180 | 35801 ft | 432 kts | 316° |
| 2026-05-03 21:22 | 36.48123 | 29.00346 | 35805 ft | 432 kts | 317° |
| 2026-05-03 21:22 | 36.52713 | 28.95500 | 35809 ft | 433 kts | 317° |
| 2026-05-03 21:23 | 36.57297 | 28.90647 | 35813 ft | 433 kts | 317° |
| 2026-05-03 21:23 | 36.61879 | 28.85783 | 35824 ft | 433 kts | 317° |
| 2026-05-03 21:24 | 36.66456 | 28.80904 | 35818 ft | 433 kts | 317° |
| 2026-05-03 21:24 | 36.71039 | 28.76024 | 35813 ft | 434 kts | 317° |
| 2026-05-03 21:25 | 36.75638 | 28.71146 | 35813 ft | 434 kts | 317° |
| 2026-05-03 21:25 | 36.80244 | 28.66267 | 35808 ft | 435 kts | 317° |
| 2026-05-03 21:26 | 36.84854 | 28.61379 | 35812 ft | 435 kts | 317° |
| 2026-05-03 21:26 | 36.89465 | 28.56472 | 35814 ft | 436 kts | 317° |
| 2026-05-03 21:27 | 36.94070 | 28.51545 | 35817 ft | 436 kts | 317° |
| 2026-05-03 21:27 | 36.98686 | 28.46610 | 35829 ft | 437 kts | 317° |
| 2026-05-03 21:28 | 37.03305 | 28.41671 | 35833 ft | 437 kts | 318° |
| 2026-05-03 21:28 | 37.07927 | 28.36717 | 35842 ft | 438 kts | 318° |
| 2026-05-03 21:29 | 37.12540 | 28.31736 | 35850 ft | 438 kts | 317° |
| 2026-05-03 21:29 | 37.17146 | 28.26734 | 35860 ft | 438 kts | 317° |
| 2026-05-03 21:30 | 37.20985 | 28.22586 | 35862 ft | 438 kts | 318° |
| 2026-05-03 21:30 | 37.25605 | 28.17612 | 35866 ft | 437 kts | 318° |
| 2026-05-03 21:31 | 37.30215 | 28.12633 | 35870 ft | 437 kts | 318° |
| 2026-05-03 21:31 | 37.34813 | 28.07638 | 35872 ft | 437 kts | 318° |
| 2026-05-03 21:32 | 37.39402 | 28.02619 | 35876 ft | 437 kts | 318° |
| 2026-05-03 21:32 | 37.43993 | 27.97596 | 35884 ft | 437 kts | 318° |
| 2026-05-03 21:33 | 37.48581 | 27.92567 | 35887 ft | 437 kts | 318° |
| 2026-05-03 21:33 | 37.53168 | 27.87538 | 35881 ft | 437 kts | 318° |
| 2026-05-03 21:34 | 37.57750 | 27.82506 | 35877 ft | 437 kts | 318° |
| 2026-05-03 21:34 | 37.62323 | 27.77461 | 35888 ft | 437 kts | 318° |
| 2026-05-03 21:35 | 37.66902 | 27.72410 | 35881 ft | 437 kts | 318° |
| 2026-05-03 21:35 | 37.71492 | 27.67350 | 35886 ft | 438 kts | 318° |
| 2026-05-03 21:36 | 37.76076 | 27.62275 | 35891 ft | 438 kts | 318° |
| 2026-05-03 21:36 | 37.80655 | 27.57194 | 35903 ft | 438 kts | 318° |
| 2026-05-03 21:37 | 37.85223 | 27.52116 | 35912 ft | 437 kts | 318° |
| 2026-05-03 21:37 | 37.89790 | 27.47044 | 35918 ft | 437 kts | 318° |
| 2026-05-03 21:38 | 37.94374 | 27.42002 | 35920 ft | 437 kts | 319° |
| 2026-05-03 21:38 | 37.98970 | 27.36974 | 35933 ft | 436 kts | 319° |
| 2026-05-03 21:39 | 38.03566 | 27.31944 | 35939 ft | 436 kts | 319° |
| 2026-05-03 21:39 | 38.08145 | 27.26895 | 35956 ft | 436 kts | 319° |
| 2026-05-03 21:40 | 38.12715 | 27.21835 | 35951 ft | 436 kts | 319° |
| 2026-05-03 21:40 | 38.17289 | 27.16777 | 35959 ft | 436 kts | 319° |
| 2026-05-03 21:41 | 38.21865 | 27.11712 | 35959 ft | 436 kts | 319° |
| 2026-05-03 21:41 | 38.26443 | 27.06631 | 35963 ft | 436 kts | 319° |
| 2026-05-03 21:42 | 38.31016 | 27.01548 | 35962 ft | 437 kts | 319° |
| 2026-05-03 21:42 | 38.35602 | 26.96473 | 35967 ft | 437 kts | 319° |
| 2026-05-03 21:43 | 38.40198 | 26.91408 | 35973 ft | 437 kts | 319° |
| 2026-05-03 21:43 | 38.44792 | 26.86333 | 35982 ft | 437 kts | 319° |
| 2026-05-03 21:44 | 38.49388 | 26.81245 | 35989 ft | 437 kts | 319° |
| 2026-05-03 21:44 | 38.53974 | 26.76150 | 36003 ft | 437 kts | 319° |
| 2026-05-03 21:45 | 38.58561 | 26.71053 | 36010 ft | 437 kts | 319° |
| 2026-05-03 21:45 | 38.63143 | 26.65949 | 36011 ft | 437 kts | 319° |
| 2026-05-03 21:46 | 38.67721 | 26.60840 | 36019 ft | 437 kts | 319° |
| 2026-05-03 21:46 | 38.72296 | 26.55721 | 36037 ft | 437 kts | 319° |
| 2026-05-03 21:47 | 38.76872 | 26.50596 | 36036 ft | 436 kts | 319° |
| 2026-05-03 21:47 | 38.81439 | 26.45473 | 36048 ft | 436 kts | 319° |
| 2026-05-03 21:48 | 38.86023 | 26.40383 | 36056 ft | 436 kts | 320° |
| 2026-05-03 21:48 | 38.90705 | 26.35446 | 36052 ft | 436 kts | 321° |
| 2026-05-03 21:49 | 38.95404 | 26.30538 | 36057 ft | 435 kts | 321° |
| 2026-05-03 21:49 | 39.00082 | 26.25600 | 36058 ft | 435 kts | 321° |
| 2026-05-03 21:50 | 39.04741 | 26.20624 | 36071 ft | 435 kts | 321° |
| 2026-05-03 21:50 | 39.09386 | 26.15640 | 36083 ft | 435 kts | 321° |
| 2026-05-03 21:51 | 39.14034 | 26.10663 | 36084 ft | 434 kts | 321° |
| 2026-05-03 21:51 | 39.18681 | 26.05687 | 36092 ft | 434 kts | 321° |
| 2026-05-03 21:52 | 39.23324 | 26.00703 | 36100 ft | 434 kts | 321° |
| 2026-05-03 21:52 | 39.27968 | 25.95702 | 36095 ft | 435 kts | 321° |
| 2026-05-03 21:53 | 39.32589 | 25.90671 | 36101 ft | 435 kts | 320° |
| 2026-05-03 21:53 | 39.37158 | 25.85556 | 36114 ft | 435 kts | 320° |
| 2026-05-03 21:54 | 39.41715 | 25.80427 | 36118 ft | 434 kts | 320° |
| 2026-05-03 21:54 | 39.46276 | 25.75309 | 36123 ft | 434 kts | 320° |
| 2026-05-03 21:55 | 39.50838 | 25.70202 | 36128 ft | 433 kts | 320° |
| 2026-05-03 21:55 | 39.55398 | 25.65092 | 36128 ft | 433 kts | 320° |
| 2026-05-03 21:56 | 39.59947 | 25.59990 | 36135 ft | 432 kts | 320° |
| 2026-05-03 21:56 | 39.64487 | 25.54884 | 36138 ft | 432 kts | 320° |
| 2026-05-03 21:57 | 39.69015 | 25.49774 | 36138 ft | 431 kts | 320° |
| 2026-05-03 21:57 | 39.73532 | 25.44656 | 36128 ft | 431 kts | 320° |
| 2026-05-03 21:58 | 39.78057 | 25.39529 | 36123 ft | 431 kts | 320° |
| 2026-05-03 21:58 | 39.82584 | 25.34397 | 36113 ft | 432 kts | 320° |
| 2026-05-03 21:59 | 39.87111 | 25.29248 | 36115 ft | 433 kts | 320° |
| 2026-05-03 21:59 | 39.91639 | 25.24083 | 36115 ft | 433 kts | 320° |
| 2026-05-03 22:00 | 39.96146 | 25.18879 | 36118 ft | 433 kts | 320° |
| 2026-05-03 22:00 | 40.00634 | 25.13625 | 36124 ft | 433 kts | 320° |
| 2026-05-03 22:01 | 40.05115 | 25.08368 | 36135 ft | 433 kts | 320° |
| 2026-05-03 22:01 | 40.09595 | 25.03111 | 36144 ft | 433 kts | 320° |
| 2026-05-03 22:02 | 40.14076 | 24.97852 | 36154 ft | 433 kts | 320° |
| 2026-05-03 22:02 | 40.18554 | 24.92593 | 36160 ft | 433 kts | 320° |
| 2026-05-03 22:03 | 40.23031 | 24.87325 | 36157 ft | 433 kts | 320° |
| 2026-05-03 22:03 | 40.27509 | 24.82041 | 36155 ft | 433 kts | 320° |
| 2026-05-03 22:04 | 40.31981 | 24.76751 | 36159 ft | 433 kts | 320° |
| 2026-05-03 22:04 | 40.36423 | 24.71486 | 36152 ft | 434 kts | 319° |
| 2026-05-03 22:05 | 40.40935 | 24.66137 | 36156 ft | 435 kts | 320° |
| 2026-05-03 22:05 | 40.45414 | 24.60809 | 36173 ft | 435 kts | 320° |
| 2026-05-03 22:06 | 40.49870 | 24.55495 | 36171 ft | 435 kts | 320° |
| 2026-05-03 22:06 | 40.54352 | 24.50148 | 36175 ft | 435 kts | 320° |
| 2026-05-03 22:07 | 40.58829 | 24.44792 | 36170 ft | 435 kts | 320° |
| 2026-05-03 22:07 | 40.63305 | 24.39431 | 36176 ft | 435 kts | 320° |
| 2026-05-03 22:08 | 40.67774 | 24.34063 | 36174 ft | 435 kts | 320° |
| 2026-05-03 22:08 | 40.72235 | 24.28695 | 36177 ft | 434 kts | 320° |
| 2026-05-03 22:09 | 40.76692 | 24.23325 | 36179 ft | 434 kts | 320° |
| 2026-05-03 22:10 | 40.83371 | 24.15260 | 36183 ft | 434 kts | 320° |
| 2026-05-03 22:10 | 40.87816 | 24.09878 | 36186 ft | 433 kts | 320° |
| 2026-05-03 22:11 | 40.92257 | 24.04495 | 36189 ft | 433 kts | 320° |
| 2026-05-03 22:11 | 40.96696 | 23.99102 | 36190 ft | 433 kts | 320° |
| 2026-05-03 22:12 | 41.00377 | 23.94613 | 36193 ft | 433 kts | 320° |
| 2026-05-03 22:12 | 41.02590 | 23.91914 | 36003 ft | 432 kts | 320° |
| 2026-05-03 22:12 | 41.04798 | 23.89224 | 35687 ft | 431 kts | 320° |
| 2026-05-03 22:12 | 41.06999 | 23.86540 | 35379 ft | 430 kts | 320° |
| 2026-05-03 22:13 | 41.09224 | 23.83820 | 35075 ft | 429 kts | 320° |
| 2026-05-03 22:13 | 41.11416 | 23.81134 | 34769 ft | 429 kts | 320° |
| 2026-05-03 22:13 | 41.13572 | 23.78487 | 34479 ft | 427 kts | 321° |
| 2026-05-03 22:13 | 41.15744 | 23.75820 | 34176 ft | 424 kts | 321° |
| 2026-05-03 22:14 | 41.17902 | 23.73170 | 33827 ft | 421 kts | 321° |
| 2026-05-03 22:14 | 41.20043 | 23.70541 | 33481 ft | 418 kts | 321° |
| 2026-05-03 22:14 | 41.22171 | 23.67928 | 33132 ft | 414 kts | 321° |
| 2026-05-03 22:14 | 41.24279 | 23.65337 | 32794 ft | 411 kts | 321° |
| 2026-05-03 22:15 | 41.26369 | 23.62764 | 32455 ft | 408 kts | 321° |
| 2026-05-03 22:15 | 41.28442 | 23.60204 | 32135 ft | 405 kts | 321° |
| 2026-05-03 22:15 | 41.30499 | 23.57658 | 31791 ft | 402 kts | 321° |
| 2026-05-03 22:15 | 41.32540 | 23.55133 | 31468 ft | 399 kts | 322° |
| 2026-05-03 22:16 | 41.34568 | 23.52628 | 31138 ft | 396 kts | 322° |
| 2026-05-03 22:16 | 41.36595 | 23.50170 | 30823 ft | 391 kts | 326° |
| 2026-05-03 22:16 | 41.38805 | 23.48122 | 30506 ft | 382 kts | 335° |
| 2026-05-03 22:16 | 41.41180 | 23.46627 | 30188 ft | 374 kts | 344° |
| 2026-05-03 22:17 | 41.43653 | 23.45673 | 29806 ft | 367 kts | 352° |
| 2026-05-03 22:17 | 41.46164 | 23.45252 | 29438 ft | 361 kts | 0° |
| 2026-05-03 22:17 | 41.48665 | 23.45131 | 29069 ft | 358 kts | 0° |
| 2026-05-03 22:17 | 41.51148 | 23.45013 | 28714 ft | 356 kts | 0° |
| 2026-05-03 22:18 | 41.53611 | 23.44890 | 28356 ft | 353 kts | 0° |
| 2026-05-03 22:18 | 41.56053 | 23.44765 | 28001 ft | 350 kts | 0° |
| 2026-05-03 22:18 | 41.58477 | 23.44643 | 27653 ft | 347 kts | 0° |
| 2026-05-03 22:18 | 41.60888 | 23.44522 | 27313 ft | 345 kts | 0° |
| 2026-05-03 22:19 | 41.63277 | 23.44405 | 26975 ft | 342 kts | 0° |
| 2026-05-03 22:19 | 41.65648 | 23.44287 | 26635 ft | 340 kts | 0° |
| 2026-05-03 22:19 | 41.68003 | 23.44169 | 26297 ft | 337 kts | 0° |
| 2026-05-03 22:19 | 41.70340 | 23.44047 | 25972 ft | 336 kts | 0° |
| 2026-05-03 22:20 | 41.72664 | 23.43925 | 25638 ft | 333 kts | 1° |
| 2026-05-03 22:20 | 41.74976 | 23.43807 | 25318 ft | 331 kts | 0° |
| 2026-05-03 22:20 | 41.77271 | 23.43688 | 25003 ft | 329 kts | 1° |
| 2026-05-03 22:20 | 41.79554 | 23.43570 | 24686 ft | 328 kts | 1° |
| 2026-05-03 22:21 | 41.81825 | 23.43456 | 24368 ft | 326 kts | 1° |
| 2026-05-03 22:21 | 41.84083 | 23.43346 | 24058 ft | 324 kts | 1° |
| 2026-05-03 22:21 | 41.86331 | 23.43236 | 23754 ft | 323 kts | 1° |
| 2026-05-03 22:21 | 41.88569 | 23.43124 | 23393 ft | 321 kts | 1° |
| 2026-05-03 22:22 | 41.90797 | 23.43010 | 23029 ft | 320 kts | 1° |
| 2026-05-03 22:22 | 41.93017 | 23.42896 | 22669 ft | 319 kts | 1° |
| 2026-05-03 22:22 | 41.95228 | 23.42783 | 22317 ft | 317 kts | 1° |
| 2026-05-03 22:22 | 41.97431 | 23.42673 | 21962 ft | 316 kts | 1° |
| 2026-05-03 22:23 | 41.99627 | 23.42560 | 21615 ft | 315 kts | 1° |
| 2026-05-03 22:23 | 42.01815 | 23.42446 | 21267 ft | 314 kts | 1° |
| 2026-05-03 22:23 | 42.04001 | 23.42332 | 20932 ft | 314 kts | 1° |
| 2026-05-03 22:23 | 42.06179 | 23.42219 | 20597 ft | 313 kts | 0° |
| 2026-05-03 22:24 | 42.08350 | 23.42109 | 20263 ft | 312 kts | 1° |
| 2026-05-03 22:24 | 42.10513 | 23.41999 | 19926 ft | 311 kts | 1° |
| 2026-05-03 22:24 | 42.12675 | 23.41889 | 19614 ft | 310 kts | 0° |
| 2026-05-03 22:24 | 42.14830 | 23.41779 | 19298 ft | 310 kts | 0° |
| 2026-05-03 22:25 | 42.16975 | 23.41670 | 18964 ft | 308 kts | 1° |
| 2026-05-03 22:25 | 42.19118 | 23.41562 | 18656 ft | 308 kts | 0° |
| 2026-05-03 22:25 | 42.21256 | 23.41451 | 18327 ft | 307 kts | 0° |
| 2026-05-03 22:25 | 42.23389 | 23.41338 | 17970 ft | 306 kts | 0° |
| 2026-05-03 22:26 | 42.25513 | 23.41230 | 17615 ft | 305 kts | 0° |
| 2026-05-03 22:26 | 42.27632 | 23.41126 | 17259 ft | 304 kts | 0° |
| 2026-05-03 22:26 | 42.29723 | 23.41273 | 16915 ft | 301 kts | 11° |
| 2026-05-03 22:26 | 42.31749 | 23.41947 | 16569 ft | 299 kts | 17° |
| 2026-05-03 22:27 | 42.33735 | 23.42754 | 16227 ft | 297 kts | 17° |
| 2026-05-03 22:27 | 42.35699 | 23.43547 | 15889 ft | 292 kts | 17° |
| 2026-05-03 22:27 | 42.37633 | 23.44327 | 15553 ft | 288 kts | 17° |
| 2026-05-03 22:27 | 42.39536 | 23.45093 | 15228 ft | 283 kts | 17° |
| 2026-05-03 22:28 | 42.41415 | 23.45850 | 14900 ft | 280 kts | 17° |
| 2026-05-03 22:28 | 42.43279 | 23.46602 | 14571 ft | 279 kts | 17° |
| 2026-05-03 22:28 | 42.45134 | 23.47352 | 14254 ft | 278 kts | 17° |
| 2026-05-03 22:28 | 42.46983 | 23.48101 | 13932 ft | 277 kts | 17° |
| 2026-05-03 22:29 | 42.48822 | 23.48844 | 13578 ft | 275 kts | 17° |
| 2026-05-03 22:29 | 42.50644 | 23.49586 | 13219 ft | 272 kts | 17° |
| 2026-05-03 22:29 | 42.52446 | 23.50320 | 12868 ft | 270 kts | 17° |
| 2026-05-03 22:29 | 42.54237 | 23.51052 | 12525 ft | 268 kts | 17° |
| 2026-05-03 22:30 | 42.56011 | 23.51775 | 12179 ft | 265 kts | 17° |
| 2026-05-03 22:30 | 42.57718 | 23.52663 | 11845 ft | 262 kts | 31° |
| 2026-05-03 22:30 | 42.59095 | 23.54245 | 11506 ft | 259 kts | 50° |
| 2026-05-03 22:30 | 42.59964 | 23.56356 | 11172 ft | 256 kts | 69° |
| 2026-05-03 22:31 | 42.60234 | 23.58727 | 10850 ft | 255 kts | 88° |
| 2026-05-03 22:31 | 42.60083 | 23.61073 | 10557 ft | 244 kts | 91° |
| 2026-05-03 22:31 | 42.59933 | 23.63316 | 10339 ft | 233 kts | 91° |
| 2026-05-03 22:31 | 42.59796 | 23.65494 | 10207 ft | 231 kts | 90° |
| 2026-05-03 22:32 | 42.59663 | 23.67657 | 10080 ft | 230 kts | 90° |
| 2026-05-03 22:32 | 42.59535 | 23.69813 | 9950 ft | 229 kts | 90° |
| 2026-05-03 22:32 | 42.59407 | 23.71963 | 9832 ft | 229 kts | 90° |
| 2026-05-03 22:32 | 42.59278 | 23.74110 | 9692 ft | 228 kts | 90° |
| 2026-05-03 22:33 | 42.59146 | 23.76254 | 9471 ft | 227 kts | 91° |
| 2026-05-03 22:33 | 42.59012 | 23.78385 | 9159 ft | 226 kts | 91° |
| 2026-05-03 22:33 | 42.58877 | 23.80502 | 8966 ft | 225 kts | 91° |
| 2026-05-03 22:33 | 42.58742 | 23.82622 | 8804 ft | 225 kts | 91° |
| 2026-05-03 22:34 | 42.58607 | 23.84736 | 8643 ft | 225 kts | 91° |
| 2026-05-03 22:34 | 42.58471 | 23.86846 | 8487 ft | 224 kts | 91° |
| 2026-05-03 22:34 | 42.58334 | 23.88952 | 8334 ft | 224 kts | 91° |
| 2026-05-03 22:34 | 42.58197 | 23.91051 | 8181 ft | 223 kts | 91° |
| 2026-05-03 22:35 | 42.58100 | 23.93145 | 8021 ft | 221 kts | 83° |
| 2026-05-03 22:35 | 42.58589 | 23.95060 | 7872 ft | 215 kts | 53° |
| 2026-05-03 22:35 | 42.59723 | 23.96341 | 7728 ft | 215 kts | 25° |
| 2026-05-03 22:35 | 42.61189 | 23.96746 | 7612 ft | 217 kts | 7° |
| 2026-05-03 22:36 | 42.62693 | 23.96922 | 7494 ft | 217 kts | 7° |
| 2026-05-03 22:36 | 42.64196 | 23.96989 | 7360 ft | 218 kts | 354° |
| 2026-05-03 22:36 | 42.65573 | 23.96095 | 7239 ft | 227 kts | 321° |
| 2026-05-03 22:36 | 42.66365 | 23.94230 | 7116 ft | 236 kts | 285° |
| 2026-05-03 22:37 | 42.66556 | 23.91999 | 6987 ft | 239 kts | 278° |
| 2026-05-03 22:37 | 42.66697 | 23.89750 | 6814 ft | 239 kts | 278° |
| 2026-05-03 22:37 | 42.66822 | 23.87507 | 6603 ft | 238 kts | 276° |
| 2026-05-03 22:37 | 42.66936 | 23.85274 | 6386 ft | 236 kts | 277° |
| 2026-05-03 22:38 | 42.67071 | 23.83057 | 6172 ft | 235 kts | 277° |
| 2026-05-03 22:38 | 42.67213 | 23.80855 | 5960 ft | 233 kts | 277° |
| 2026-05-03 22:38 | 42.67353 | 23.78668 | 5749 ft | 232 kts | 277° |
| 2026-05-03 22:38 | 42.67491 | 23.76492 | 5542 ft | 230 kts | 277° |
| 2026-05-03 22:39 | 42.67628 | 23.74332 | 5380 ft | 229 kts | 277° |
| 2026-05-03 22:39 | 42.67764 | 23.72176 | 5228 ft | 228 kts | 277° |
| 2026-05-03 22:39 | 42.67896 | 23.70080 | 5063 ft | 218 kts | 277° |
| 2026-05-03 22:39 | 42.68021 | 23.68082 | 4903 ft | 207 kts | 277° |
| 2026-05-03 22:40 | 42.68141 | 23.66174 | 4744 ft | 199 kts | 277° |
| 2026-05-03 22:40 | 42.68257 | 23.64326 | 4585 ft | 195 kts | 277° |
| 2026-05-03 22:40 | 42.68370 | 23.62506 | 4484 ft | 193 kts | 277° |
| 2026-05-03 22:40 | 42.68483 | 23.60701 | 4306 ft | 189 kts | 277° |
| 2026-05-03 22:41 | 42.68590 | 23.58968 | 4057 ft | 180 kts | 277° |
| 2026-05-03 22:41 | 42.68692 | 23.57309 | 3811 ft | 172 kts | 277° |
| 2026-05-03 22:41 | 42.68788 | 23.55755 | 3597 ft | 157 kts | 277° |
| 2026-05-03 22:41 | 42.68877 | 23.54321 | 3343 ft | 149 kts | 277° |
| 2026-05-03 22:42 | 42.68963 | 23.52939 | 3108 ft | 145 kts | 276° |
| 2026-05-03 22:42 | 42.69047 | 23.51578 | 2884 ft | 144 kts | 275° |
| 2026-05-03 22:42 | 42.69129 | 23.50229 | 2704 ft | 143 kts | 275° |
| 2026-05-03 22:42 | 42.69211 | 23.48890 | 2516 ft | 141 kts | 275° |
| 2026-05-03 22:43 | 42.69295 | 23.47586 | 2334 ft | 140 kts | 275° |
| 2026-05-03 22:43 | 42.69374 | 23.46280 | 2136 ft | 138 kts | 274° |
| 2026-05-03 22:43 | 42.69453 | 23.44990 | 1945 ft | 136 kts | 275° |
| 2026-05-03 22:43 | 42.69529 | 23.43703 | 1774 ft | 136 kts | 274° |
| 2026-05-03 22:44 | 42.69598 | 23.42562 | 1744 ft | 98 kts | 274° |
| 2026-05-03 22:44 | 42.69636 | 23.41906 | 1744 ft | 38 kts | 274° |
| 2026-05-03 22:44 | 42.69606 | 23.41638 | 1747 ft | 22 kts | 251° |
| 2026-05-03 22:44 | 42.69556 | 23.41479 | 1744 ft | 17 kts | 246° |
| 2026-05-03 22:45 | 42.69515 | 23.41360 | 1741 ft | 7 kts | 244° |
| 2026-05-03 22:45 | 42.69499 | 23.41316 | 1744 ft | 0 kts | 244° |
| 2026-05-03 22:45 | 42.69488 | 23.41272 | 1740 ft | 8 kts | 255° |
| 2026-05-03 22:46 | 42.69446 | 23.41212 | 1746 ft | 11 kts | 198° |
| 2026-05-03 22:46 | 42.69363 | 23.41186 | 1750 ft | 14 kts | 192° |
| 2026-05-03 22:46 | 42.69263 | 23.41156 | 1750 ft | 16 kts | 192° |
| 2026-05-03 22:46 | 42.69158 | 23.41124 | 1750 ft | 12 kts | 199° |
| 2026-05-03 22:47 | 42.69111 | 23.41021 | 1743 ft | 15 kts | 251° |
| 2026-05-03 22:47 | 42.69077 | 23.40875 | 1750 ft | 17 kts | 252° |
| 2026-05-03 22:47 | 42.69063 | 23.40734 | 1745 ft | 16 kts | 283° |
| 2026-05-03 22:47 | 42.69096 | 23.40580 | 1746 ft | 18 kts | 287° |
| 2026-05-03 22:48 | 42.69133 | 23.40412 | 1749 ft | 16 kts | 287° |
| 2026-05-03 22:48 | 42.69165 | 23.40269 | 1742 ft | 14 kts | 287° |
| 2026-05-03 22:48 | 42.69190 | 23.40151 | 1745 ft | 14 kts | 287° |
| 2026-05-03 22:48 | 42.69205 | 23.40075 | 1742 ft | 5 kts | 272° |
| 2026-05-03 22:49 | 42.69180 | 23.40052 | 1745 ft | 6 kts | 201° |
| 2026-05-03 22:49 | 42.69141 | 23.40035 | 1748 ft | 4 kts | 197° |
| 2026-05-03 22:49 | 42.69140 | 23.40035 | 1748 ft | 0 kts | 197° |